sensor_id;sensor_type;location;lat;lon;timestamp;temperature;humidity
9177;DHT22;4623;54.310;10.112;2022-10-22T00:00:22;15.30;99.90
9177;DHT22;4623;54.310;10.112;2022-10-22T00:02:48;15.30;99.90
9177;DHT22;4623;54.310;10.112;2022-10-22T00:05:14;15.30;99.90
9177;DHT22;4623;54.310;10.112;2022-10-22T00:07:40;15.30;99.90
9177;DHT22;4623;54.310;10.112;2022-10-22T00:10:06;15.20;99.90
9177;DHT22;4623;54.310;10.112;2022-10-22T00:12:32;15.20;99.90
9177;DHT22;4623;54.310;10.112;2022-10-22T00:14:57;15.20;99.90
9177;DHT22;4623;54.310;10.112;2022-10-22T00:17:23;15.20;99.90
9177;DHT22;4623;54.310;10.112;2022-10-22T00:19:48;15.20;99.90
9177;DHT22;4623;54.310;10.112;2022-10-22T00:22:14;15.20;99.90
9177;DHT22;4623;54.310;10.112;2022-10-22T00:24:40;15.20;99.90
9177;DHT22;4623;54.310;10.112;2022-10-22T00:27:08;15.20;99.90
9177;DHT22;4623;54.310;10.112;2022-10-22T00:29:34;15.20;99.90
9177;DHT22;4623;54.310;10.112;2022-10-22T00:32:00;15.20;99.90
9177;DHT22;4623;54.310;10.112;2022-10-22T00:34:26;15.20;99.90
9177;DHT22;4623;54.310;10.112;2022-10-22T00:36:52;15.30;99.90
9177;DHT22;4623;54.310;10.112;2022-10-22T00:39:19;15.30;99.90
9177;DHT22;4623;54.310;10.112;2022-10-22T00:41:47;15.30;99.90
9177;DHT22;4623;54.310;10.112;2022-10-22T00:47:17;15.30;99.90
9177;DHT22;4623;54.310;10.112;2022-10-22T00:49:44;15.20;99.90
9177;DHT22;4623;54.310;10.112;2022-10-22T00:52:12;15.20;99.90
9177;DHT22;4623;54.310;10.112;2022-10-22T00:54:38;15.10;99.90
9177;DHT22;4623;54.310;10.112;2022-10-22T00:57:04;15.10;99.90
9177;DHT22;4623;54.310;10.112;2022-10-22T00:59:30;15.10;99.90
9177;DHT22;4623;54.310;10.112;2022-10-22T01:01:56;15.10;99.90
9177;DHT22;4623;54.310;10.112;2022-10-22T01:04:21;15.10;99.90
9177;DHT22;4623;54.310;10.112;2022-10-22T01:06:47;15.10;99.90
9177;DHT22;4623;54.310;10.112;2022-10-22T01:11:51;15.10;99.90
9177;DHT22;4623;54.310;10.112;2022-10-22T01:17:19;15.00;99.90
9177;DHT22;4623;54.310;10.112;2022-10-22T01:27:48;15.10;99.90
9177;DHT22;4623;54.310;10.112;2022-10-22T01:30:18;15.20;99.90
9177;DHT22;4623;54.310;10.112;2022-10-22T01:32:49;15.10;99.90
9177;DHT22;4623;54.310;10.112;2022-10-22T01:35:22;15.10;99.90
9177;DHT22;4623;54.310;10.112;2022-10-22T01:37:52;15.20;99.90
9177;DHT22;4623;54.310;10.112;2022-10-22T01:40:19;15.20;99.90
9177;DHT22;4623;54.310;10.112;2022-10-22T01:42:56;15.20;99.90
9177;DHT22;4623;54.310;10.112;2022-10-22T01:45:22;15.20;99.90
9177;DHT22;4623;54.310;10.112;2022-10-22T01:56:08;15.20;99.90
9177;DHT22;4623;54.310;10.112;2022-10-22T01:58:53;15.10;99.90
9177;DHT22;4623;54.310;10.112;2022-10-22T02:06:33;15.10;99.90
9177;DHT22;4623;54.310;10.112;2022-10-22T02:09:01;15.10;99.90
9177;DHT22;4623;54.310;10.112;2022-10-22T02:11:28;15.10;99.90
9177;DHT22;4623;54.310;10.112;2022-10-22T02:13:57;15.10;99.90
9177;DHT22;4623;54.310;10.112;2022-10-22T02:16:31;15.10;99.90
9177;DHT22;4623;54.310;10.112;2022-10-22T02:19:01;15.10;99.90
9177;DHT22;4623;54.310;10.112;2022-10-22T02:21:28;15.10;99.90
9177;DHT22;4623;54.310;10.112;2022-10-22T02:23:55;15.10;99.90
9177;DHT22;4623;54.310;10.112;2022-10-22T02:26:23;15.10;99.90
9177;DHT22;4623;54.310;10.112;2022-10-22T02:29:02;15.20;99.90
9177;DHT22;4623;54.310;10.112;2022-10-22T02:31:31;15.20;99.90
9177;DHT22;4623;54.310;10.112;2022-10-22T02:34:02;15.20;99.90
9177;DHT22;4623;54.310;10.112;2022-10-22T02:36:30;15.20;99.90
9177;DHT22;4623;54.310;10.112;2022-10-22T02:38:57;15.20;99.90
9177;DHT22;4623;54.310;10.112;2022-10-22T02:41:22;15.20;99.90
9177;DHT22;4623;54.310;10.112;2022-10-22T02:43:54;15.20;99.90
9177;DHT22;4623;54.310;10.112;2022-10-22T02:46:20;15.20;99.90
9177;DHT22;4623;54.310;10.112;2022-10-22T02:48:45;15.20;99.90
9177;DHT22;4623;54.310;10.112;2022-10-22T02:51:12;15.30;99.90
9177;DHT22;4623;54.310;10.112;2022-10-22T02:53:37;15.30;99.90
9177;DHT22;4623;54.310;10.112;2022-10-22T02:56:03;15.30;99.90
9177;DHT22;4623;54.310;10.112;2022-10-22T02:58:29;15.20;99.90
9177;DHT22;4623;54.310;10.112;2022-10-22T03:00:55;15.20;99.90
9177;DHT22;4623;54.310;10.112;2022-10-22T03:03:20;15.20;99.90
9177;DHT22;4623;54.310;10.112;2022-10-22T03:05:46;15.30;99.90
9177;DHT22;4623;54.310;10.112;2022-10-22T03:08:11;15.20;99.90
9177;DHT22;4623;54.310;10.112;2022-10-22T03:10:37;15.20;99.90
9177;DHT22;4623;54.310;10.112;2022-10-22T03:13:03;15.20;99.90
9177;DHT22;4623;54.310;10.112;2022-10-22T03:15:28;15.20;99.90
9177;DHT22;4623;54.310;10.112;2022-10-22T03:17:54;15.20;99.90
9177;DHT22;4623;54.310;10.112;2022-10-22T03:20:19;15.20;99.90
9177;DHT22;4623;54.310;10.112;2022-10-22T03:22:45;15.20;99.90
9177;DHT22;4623;54.310;10.112;2022-10-22T03:25:14;15.20;99.90
9177;DHT22;4623;54.310;10.112;2022-10-22T03:27:41;15.20;99.90
9177;DHT22;4623;54.310;10.112;2022-10-22T03:30:07;15.20;99.90
9177;DHT22;4623;54.310;10.112;2022-10-22T03:32:33;15.20;99.90
9177;DHT22;4623;54.310;10.112;2022-10-22T03:34:59;15.20;99.90
9177;DHT22;4623;54.310;10.112;2022-10-22T03:37:25;15.20;99.90
9177;DHT22;4623;54.310;10.112;2022-10-22T03:39:52;15.20;99.90
9177;DHT22;4623;54.310;10.112;2022-10-22T03:42:19;15.20;99.90
9177;DHT22;4623;54.310;10.112;2022-10-22T03:44:45;15.20;99.90
9177;DHT22;4623;54.310;10.112;2022-10-22T03:47:11;15.10;99.90
9177;DHT22;4623;54.310;10.112;2022-10-22T03:49:36;15.10;99.90
9177;DHT22;4623;54.310;10.112;2022-10-22T03:52:13;15.10;99.90
9177;DHT22;4623;54.310;10.112;2022-10-22T03:54:39;15.00;99.90
9177;DHT22;4623;54.310;10.112;2022-10-22T03:57:05;15.00;99.90
9177;DHT22;4623;54.310;10.112;2022-10-22T03:59:42;14.90;99.90
9177;DHT22;4623;54.310;10.112;2022-10-22T04:02:09;14.90;99.90
9177;DHT22;4623;54.310;10.112;2022-10-22T04:04:35;14.90;99.90
9177;DHT22;4623;54.310;10.112;2022-10-22T04:07:01;14.90;99.90
9177;DHT22;4623;54.310;10.112;2022-10-22T04:09:30;14.90;99.90
9177;DHT22;4623;54.310;10.112;2022-10-22T04:11:56;14.80;99.90
9177;DHT22;4623;54.310;10.112;2022-10-22T04:14:21;14.80;99.90
9177;DHT22;4623;54.310;10.112;2022-10-22T04:16:47;14.80;99.90
9177;DHT22;4623;54.310;10.112;2022-10-22T04:19:12;14.80;99.90
9177;DHT22;4623;54.310;10.112;2022-10-22T04:21:38;14.90;99.90
9177;DHT22;4623;54.310;10.112;2022-10-22T04:24:04;14.80;99.90
9177;DHT22;4623;54.310;10.112;2022-10-22T04:26:29;14.80;99.90
9177;DHT22;4623;54.310;10.112;2022-10-22T04:28:55;14.80;99.90
9177;DHT22;4623;54.310;10.112;2022-10-22T04:31:22;14.80;99.90
9177;DHT22;4623;54.310;10.112;2022-10-22T04:33:54;14.80;99.90
9177;DHT22;4623;54.310;10.112;2022-10-22T04:36:21;14.80;99.90
9177;DHT22;4623;54.310;10.112;2022-10-22T04:38:51;14.70;99.90
9177;DHT22;4623;54.310;10.112;2022-10-22T04:41:23;14.70;99.90
9177;DHT22;4623;54.310;10.112;2022-10-22T04:43:49;14.70;99.90
9177;DHT22;4623;54.310;10.112;2022-10-22T04:46:16;14.70;99.90
9177;DHT22;4623;54.310;10.112;2022-10-22T04:48:43;14.60;99.90
9177;DHT22;4623;54.310;10.112;2022-10-22T04:51:15;14.60;99.90
9177;DHT22;4623;54.310;10.112;2022-10-22T04:53:41;14.60;99.90
9177;DHT22;4623;54.310;10.112;2022-10-22T04:56:15;14.60;99.90
9177;DHT22;4623;54.310;10.112;2022-10-22T04:58:41;14.60;99.90
9177;DHT22;4623;54.310;10.112;2022-10-22T05:01:12;14.60;99.90
9177;DHT22;4623;54.310;10.112;2022-10-22T05:03:38;14.70;99.90
9177;DHT22;4623;54.310;10.112;2022-10-22T05:06:04;14.70;99.90
9177;DHT22;4623;54.310;10.112;2022-10-22T05:08:29;14.70;99.90
9177;DHT22;4623;54.310;10.112;2022-10-22T05:10:55;14.80;99.90
9177;DHT22;4623;54.310;10.112;2022-10-22T05:13:20;14.80;99.90
9177;DHT22;4623;54.310;10.112;2022-10-22T05:15:46;14.80;99.90
9177;DHT22;4623;54.310;10.112;2022-10-22T05:18:12;14.70;99.90
9177;DHT22;4623;54.310;10.112;2022-10-22T05:20:41;14.70;99.90
9177;DHT22;4623;54.310;10.112;2022-10-22T05:23:07;14.70;99.90
9177;DHT22;4623;54.310;10.112;2022-10-22T05:25:37;14.70;99.90
9177;DHT22;4623;54.310;10.112;2022-10-22T05:28:03;14.70;99.90
9177;DHT22;4623;54.310;10.112;2022-10-22T05:30:29;14.70;99.90
9177;DHT22;4623;54.310;10.112;2022-10-22T05:32:54;14.70;99.90
9177;DHT22;4623;54.310;10.112;2022-10-22T05:35:20;14.70;99.90
9177;DHT22;4623;54.310;10.112;2022-10-22T05:37:45;14.60;99.90
9177;DHT22;4623;54.310;10.112;2022-10-22T05:40:11;14.60;99.90
9177;DHT22;4623;54.310;10.112;2022-10-22T05:42:37;14.60;99.90
9177;DHT22;4623;54.310;10.112;2022-10-22T05:45:03;14.60;99.90
9177;DHT22;4623;54.310;10.112;2022-10-22T05:47:29;14.60;99.90
9177;DHT22;4623;54.310;10.112;2022-10-22T05:49:55;14.50;99.90
9177;DHT22;4623;54.310;10.112;2022-10-22T05:52:22;14.50;99.90
9177;DHT22;4623;54.310;10.112;2022-10-22T05:54:48;14.40;99.90
9177;DHT22;4623;54.310;10.112;2022-10-22T05:57:14;14.40;99.90
9177;DHT22;4623;54.310;10.112;2022-10-22T05:59:39;14.30;99.90
9177;DHT22;4623;54.310;10.112;2022-10-22T06:02:07;14.30;99.90
9177;DHT22;4623;54.310;10.112;2022-10-22T06:04:33;14.30;99.90
9177;DHT22;4623;54.310;10.112;2022-10-22T06:06:58;14.30;99.90
9177;DHT22;4623;54.310;10.112;2022-10-22T06:09:34;14.30;99.90
9177;DHT22;4623;54.310;10.112;2022-10-22T06:12:01;14.30;99.90
9177;DHT22;4623;54.310;10.112;2022-10-22T06:14:27;14.30;99.90
9177;DHT22;4623;54.310;10.112;2022-10-22T06:16:53;14.40;99.90
9177;DHT22;4623;54.310;10.112;2022-10-22T06:19:21;14.30;99.90
9177;DHT22;4623;54.310;10.112;2022-10-22T06:21:48;14.40;99.90
9177;DHT22;4623;54.310;10.112;2022-10-22T06:24:13;14.30;99.90
9177;DHT22;4623;54.310;10.112;2022-10-22T06:26:39;14.30;99.90
9177;DHT22;4623;54.310;10.112;2022-10-22T06:29:06;14.30;99.90
9177;DHT22;4623;54.310;10.112;2022-10-22T06:31:32;14.30;99.90
9177;DHT22;4623;54.310;10.112;2022-10-22T06:34:02;14.30;99.90
9177;DHT22;4623;54.310;10.112;2022-10-22T06:36:29;14.30;99.90
9177;DHT22;4623;54.310;10.112;2022-10-22T06:38:55;14.30;99.90
9177;DHT22;4623;54.310;10.112;2022-10-22T06:41:21;14.30;99.90
9177;DHT22;4623;54.310;10.112;2022-10-22T06:43:47;14.30;99.90
9177;DHT22;4623;54.310;10.112;2022-10-22T06:46:18;14.30;99.90
9177;DHT22;4623;54.310;10.112;2022-10-22T06:48:48;14.30;99.90
9177;DHT22;4623;54.310;10.112;2022-10-22T06:51:14;14.40;99.90
9177;DHT22;4623;54.310;10.112;2022-10-22T06:53:40;14.40;99.90
9177;DHT22;4623;54.310;10.112;2022-10-22T06:56:11;14.40;99.90
9177;DHT22;4623;54.310;10.112;2022-10-22T06:58:37;14.40;99.90
9177;DHT22;4623;54.310;10.112;2022-10-22T07:01:05;14.40;99.90
9177;DHT22;4623;54.310;10.112;2022-10-22T07:03:31;14.50;99.90
9177;DHT22;4623;54.310;10.112;2022-10-22T07:06:01;14.50;99.90
9177;DHT22;4623;54.310;10.112;2022-10-22T07:08:27;14.60;99.90
9177;DHT22;4623;54.310;10.112;2022-10-22T07:10:54;14.60;99.90
9177;DHT22;4623;54.310;10.112;2022-10-22T07:13:20;14.60;99.90
9177;DHT22;4623;54.310;10.112;2022-10-22T07:15:52;14.60;99.90
9177;DHT22;4623;54.310;10.112;2022-10-22T07:18:18;14.60;99.90
9177;DHT22;4623;54.310;10.112;2022-10-22T07:20:43;14.60;99.90
9177;DHT22;4623;54.310;10.112;2022-10-22T07:23:09;14.60;99.90
9177;DHT22;4623;54.310;10.112;2022-10-22T07:25:34;14.60;99.90
9177;DHT22;4623;54.310;10.112;2022-10-22T07:28:00;14.50;99.90
9177;DHT22;4623;54.310;10.112;2022-10-22T07:30:26;14.50;99.90
9177;DHT22;4623;54.310;10.112;2022-10-22T07:32:51;14.50;99.90
9177;DHT22;4623;54.310;10.112;2022-10-22T07:35:17;14.50;99.90
9177;DHT22;4623;54.310;10.112;2022-10-22T07:37:42;14.50;99.90
9177;DHT22;4623;54.310;10.112;2022-10-22T07:40:08;14.50;99.90
9177;DHT22;4623;54.310;10.112;2022-10-22T07:42:34;14.50;99.90
9177;DHT22;4623;54.310;10.112;2022-10-22T07:44:59;14.60;99.90
9177;DHT22;4623;54.310;10.112;2022-10-22T07:47:25;14.60;99.90
9177;DHT22;4623;54.310;10.112;2022-10-22T07:49:51;14.60;99.90
9177;DHT22;4623;54.310;10.112;2022-10-22T07:52:16;14.60;99.90
9177;DHT22;4623;54.310;10.112;2022-10-22T07:54:42;14.50;99.90
9177;DHT22;4623;54.310;10.112;2022-10-22T07:57:07;14.40;99.90
9177;DHT22;4623;54.310;10.112;2022-10-22T07:59:33;14.40;99.90
9177;DHT22;4623;54.310;10.112;2022-10-22T08:01:58;14.40;99.90
9177;DHT22;4623;54.310;10.112;2022-10-22T08:04:24;14.50;99.90
9177;DHT22;4623;54.310;10.112;2022-10-22T08:06:49;14.50;99.90
9177;DHT22;4623;54.310;10.112;2022-10-22T08:09:15;14.60;99.90
9177;DHT22;4623;54.310;10.112;2022-10-22T08:11:41;14.60;99.90
9177;DHT22;4623;54.310;10.112;2022-10-22T08:14:06;14.60;99.90
9177;DHT22;4623;54.310;10.112;2022-10-22T08:16:32;14.70;99.90
9177;DHT22;4623;54.310;10.112;2022-10-22T08:18:57;14.70;99.90
9177;DHT22;4623;54.310;10.112;2022-10-22T08:21:23;14.80;99.90
9177;DHT22;4623;54.310;10.112;2022-10-22T08:23:49;14.80;99.90
9177;DHT22;4623;54.310;10.112;2022-10-22T08:26:14;14.80;99.90
9177;DHT22;4623;54.310;10.112;2022-10-22T08:28:40;14.80;99.90
9177;DHT22;4623;54.310;10.112;2022-10-22T08:31:07;14.80;99.90
9177;DHT22;4623;54.310;10.112;2022-10-22T08:33:33;14.90;99.90
9177;DHT22;4623;54.310;10.112;2022-10-22T08:35:58;15.00;99.90
9177;DHT22;4623;54.310;10.112;2022-10-22T08:38:24;15.10;99.90
9177;DHT22;4623;54.310;10.112;2022-10-22T08:41:05;15.20;99.90
9177;DHT22;4623;54.310;10.112;2022-10-22T08:49:23;15.00;99.90
9177;DHT22;4623;54.310;10.112;2022-10-22T08:51:50;15.00;99.90
9177;DHT22;4623;54.310;10.112;2022-10-22T09:02:17;15.20;99.90
9177;DHT22;4623;54.310;10.112;2022-10-22T09:04:55;15.10;99.90
9177;DHT22;4623;54.310;10.112;2022-10-22T09:07:26;15.10;99.90
9177;DHT22;4623;54.310;10.112;2022-10-22T09:09:54;15.00;99.90
9177;DHT22;4623;54.310;10.112;2022-10-22T09:12:23;14.90;99.90
9177;DHT22;4623;54.310;10.112;2022-10-22T09:14:50;14.90;99.90
9177;DHT22;4623;54.310;10.112;2022-10-22T09:17:20;14.80;99.90
9177;DHT22;4623;54.310;10.112;2022-10-22T09:20:23;14.80;99.90
9177;DHT22;4623;54.310;10.112;2022-10-22T09:25:30;14.80;99.90
9177;DHT22;4623;54.310;10.112;2022-10-22T09:27:56;14.80;99.90
9177;DHT22;4623;54.310;10.112;2022-10-22T09:30:34;14.80;99.90
9177;DHT22;4623;54.310;10.112;2022-10-22T09:35:25;14.90;99.90
9177;DHT22;4623;54.310;10.112;2022-10-22T09:37:54;14.90;99.90
9177;DHT22;4623;54.310;10.112;2022-10-22T09:40:20;14.90;99.90
9177;DHT22;4623;54.310;10.112;2022-10-22T09:42:46;15.00;99.90
9177;DHT22;4623;54.310;10.112;2022-10-22T09:45:22;15.10;99.90
9177;DHT22;4623;54.310;10.112;2022-10-22T09:47:49;15.20;99.90
9177;DHT22;4623;54.310;10.112;2022-10-22T09:50:23;15.30;99.90
9177;DHT22;4623;54.310;10.112;2022-10-22T09:53:02;15.30;99.90
9177;DHT22;4623;54.310;10.112;2022-10-22T09:55:28;15.30;99.90
9177;DHT22;4623;54.310;10.112;2022-10-22T09:57:57;15.30;99.90
9177;DHT22;4623;54.310;10.112;2022-10-22T10:00:24;15.30;99.90
9177;DHT22;4623;54.310;10.112;2022-10-22T10:02:54;15.40;99.90
9177;DHT22;4623;54.310;10.112;2022-10-22T10:05:29;15.40;99.90
9177;DHT22;4623;54.310;10.112;2022-10-22T10:07:55;15.40;99.90
9177;DHT22;4623;54.310;10.112;2022-10-22T10:10:40;15.40;99.90
9177;DHT22;4623;54.310;10.112;2022-10-22T10:13:32;15.40;99.90
9177;DHT22;4623;54.310;10.112;2022-10-22T10:27:38;15.90;99.90
9177;DHT22;4623;54.310;10.112;2022-10-22T10:30:17;16.00;99.90
9177;DHT22;4623;54.310;10.112;2022-10-22T10:43:45;18.40;99.90
9177;DHT22;4623;54.310;10.112;2022-10-22T10:46:22;19.40;99.90
9177;DHT22;4623;54.310;10.112;2022-10-22T10:57:18;21.60;99.90
9177;DHT22;4623;54.310;10.112;2022-10-22T11:08:10;22.80;99.90
9177;DHT22;4623;54.310;10.112;2022-10-22T11:10:53;23.10;99.90
9177;DHT22;4623;54.310;10.112;2022-10-22T11:13:46;23.40;99.90
9177;DHT22;4623;54.310;10.112;2022-10-22T11:19:24;22.30;99.90
9177;DHT22;4623;54.310;10.112;2022-10-22T11:22:08;22.00;99.90
9177;DHT22;4623;54.310;10.112;2022-10-22T11:29:42;22.80;99.90
9177;DHT22;4623;54.310;10.112;2022-10-22T11:32:19;23.10;99.90
9177;DHT22;4623;54.310;10.112;2022-10-22T11:34:58;23.60;99.90
9177;DHT22;4623;54.310;10.112;2022-10-22T11:37:29;24.00;99.90
9177;DHT22;4623;54.310;10.112;2022-10-22T11:40:31;24.30;99.90
9177;DHT22;4623;54.310;10.112;2022-10-22T11:43:10;24.80;99.90
9177;DHT22;4623;54.310;10.112;2022-10-22T11:45:38;25.00;99.90
9177;DHT22;4623;54.310;10.112;2022-10-22T11:48:17;25.20;99.90
9177;DHT22;4623;54.310;10.112;2022-10-22T11:50:50;25.60;99.90
9177;DHT22;4623;54.310;10.112;2022-10-22T12:14:15;28.20;91.40
9177;DHT22;4623;54.310;10.112;2022-10-22T12:16:57;28.60;81.30
9177;DHT22;4623;54.310;10.112;2022-10-22T12:19:30;28.20;82.70
9177;DHT22;4623;54.310;10.112;2022-10-22T12:22:01;27.90;85.20
9177;DHT22;4623;54.310;10.112;2022-10-22T12:24:34;27.20;85.50
9177;DHT22;4623;54.310;10.112;2022-10-22T12:27:01;26.00;91.00
9177;DHT22;4623;54.310;10.112;2022-10-22T12:29:29;25.10;97.50
9177;DHT22;4623;54.310;10.112;2022-10-22T12:31:55;24.60;99.90
9177;DHT22;4623;54.310;10.112;2022-10-22T12:34:23;24.10;99.90
9177;DHT22;4623;54.310;10.112;2022-10-22T12:36:52;23.60;99.90
9177;DHT22;4623;54.310;10.112;2022-10-22T12:39:20;23.00;99.90
9177;DHT22;4623;54.310;10.112;2022-10-22T12:41:46;22.70;99.90
9177;DHT22;4623;54.310;10.112;2022-10-22T12:44:15;22.20;99.90
9177;DHT22;4623;54.310;10.112;2022-10-22T12:46:43;21.90;99.90
9177;DHT22;4623;54.310;10.112;2022-10-22T12:49:24;21.60;99.90
9177;DHT22;4623;54.310;10.112;2022-10-22T12:51:53;21.20;99.90
9177;DHT22;4623;54.310;10.112;2022-10-22T12:54:23;21.00;99.90
9177;DHT22;4623;54.310;10.112;2022-10-22T12:56:50;20.70;99.90
9177;DHT22;4623;54.310;10.112;2022-10-22T13:01:58;20.40;99.90
9177;DHT22;4623;54.310;10.112;2022-10-22T13:04:35;20.20;99.90
9177;DHT22;4623;54.310;10.112;2022-10-22T13:07:12;20.10;99.90
9177;DHT22;4623;54.310;10.112;2022-10-22T13:09:57;20.00;99.90
9177;DHT22;4623;54.310;10.112;2022-10-22T13:12:25;20.00;99.90
9177;DHT22;4623;54.310;10.112;2022-10-22T13:14:51;20.00;99.90
9177;DHT22;4623;54.310;10.112;2022-10-22T13:17:20;20.10;99.90
9177;DHT22;4623;54.310;10.112;2022-10-22T13:22:34;20.10;99.90
9177;DHT22;4623;54.310;10.112;2022-10-22T13:27:49;19.90;99.90
9177;DHT22;4623;54.310;10.112;2022-10-22T13:30:35;19.80;99.90
9177;DHT22;4623;54.310;10.112;2022-10-22T13:33:04;19.60;99.90
9177;DHT22;4623;54.310;10.112;2022-10-22T13:35:33;19.50;99.90
9177;DHT22;4623;54.310;10.112;2022-10-22T13:38:00;19.40;99.90
9177;DHT22;4623;54.310;10.112;2022-10-22T13:40:27;19.30;99.90
9177;DHT22;4623;54.310;10.112;2022-10-22T13:42:52;19.20;99.90
9177;DHT22;4623;54.310;10.112;2022-10-22T13:45:18;19.10;99.90
9177;DHT22;4623;54.310;10.112;2022-10-22T13:47:48;19.10;99.90
9177;DHT22;4623;54.310;10.112;2022-10-22T13:50:17;19.00;99.90
9177;DHT22;4623;54.310;10.112;2022-10-22T13:52:46;18.90;99.90
9177;DHT22;4623;54.310;10.112;2022-10-22T13:55:27;18.80;99.90
9177;DHT22;4623;54.310;10.112;2022-10-22T13:58:09;18.80;99.90
9177;DHT22;4623;54.310;10.112;2022-10-22T14:00:37;18.80;99.90
9177;DHT22;4623;54.310;10.112;2022-10-22T14:03:03;18.70;99.90
9177;DHT22;4623;54.310;10.112;2022-10-22T14:05:29;18.70;99.90
9177;DHT22;4623;54.310;10.112;2022-10-22T14:07:59;18.70;99.90
9177;DHT22;4623;54.310;10.112;2022-10-22T14:10:25;18.70;99.90
9177;DHT22;4623;54.310;10.112;2022-10-22T14:12:51;18.70;99.90
9177;DHT22;4623;54.310;10.112;2022-10-22T14:15:19;18.70;99.90
9177;DHT22;4623;54.310;10.112;2022-10-22T14:17:48;18.70;99.90
9177;DHT22;4623;54.310;10.112;2022-10-22T14:20:21;18.70;99.90
9177;DHT22;4623;54.310;10.112;2022-10-22T14:22:48;18.60;99.90
9177;DHT22;4623;54.310;10.112;2022-10-22T14:25:22;18.60;99.90
9177;DHT22;4623;54.310;10.112;2022-10-22T14:27:49;18.60;99.90
9177;DHT22;4623;54.310;10.112;2022-10-22T14:30:23;18.50;99.90
9177;DHT22;4623;54.310;10.112;2022-10-22T14:32:49;18.40;99.90
9177;DHT22;4623;54.310;10.112;2022-10-22T14:35:18;18.40;99.90
9177;DHT22;4623;54.310;10.112;2022-10-22T14:37:44;18.40;99.90
9177;DHT22;4623;54.310;10.112;2022-10-22T14:40:13;18.30;99.90
9177;DHT22;4623;54.310;10.112;2022-10-22T14:42:41;18.30;99.90
9177;DHT22;4623;54.310;10.112;2022-10-22T14:45:17;18.20;99.90
9177;DHT22;4623;54.310;10.112;2022-10-22T14:47:43;18.30;99.90
9177;DHT22;4623;54.310;10.112;2022-10-22T14:50:10;18.20;99.90
9177;DHT22;4623;54.310;10.112;2022-10-22T14:52:35;18.20;99.90
9177;DHT22;4623;54.310;10.112;2022-10-22T14:55:01;18.20;99.90
9177;DHT22;4623;54.310;10.112;2022-10-22T14:57:27;18.20;99.90
9177;DHT22;4623;54.310;10.112;2022-10-22T14:59:52;18.20;99.90
9177;DHT22;4623;54.310;10.112;2022-10-22T15:02:21;18.20;99.90
9177;DHT22;4623;54.310;10.112;2022-10-22T15:04:47;18.20;99.90
9177;DHT22;4623;54.310;10.112;2022-10-22T15:07:13;18.20;99.90
9177;DHT22;4623;54.310;10.112;2022-10-22T15:09:39;18.20;99.90
9177;DHT22;4623;54.310;10.112;2022-10-22T15:12:04;18.00;99.90
9177;DHT22;4623;54.310;10.112;2022-10-22T15:14:30;17.80;99.90
9177;DHT22;4623;54.310;10.112;2022-10-22T15:16:57;17.80;99.90
9177;DHT22;4623;54.310;10.112;2022-10-22T15:19:23;17.70;99.90
9177;DHT22;4623;54.310;10.112;2022-10-22T15:21:49;17.60;99.90
9177;DHT22;4623;54.310;10.112;2022-10-22T15:24:14;17.60;99.90
9177;DHT22;4623;54.310;10.112;2022-10-22T15:26:40;17.60;99.90
9177;DHT22;4623;54.310;10.112;2022-10-22T15:29:05;17.60;99.90
9177;DHT22;4623;54.310;10.112;2022-10-22T15:31:46;17.60;99.90
9177;DHT22;4623;54.310;10.112;2022-10-22T15:34:18;17.60;99.90
9177;DHT22;4623;54.310;10.112;2022-10-22T15:36:43;17.60;99.90
9177;DHT22;4623;54.310;10.112;2022-10-22T15:39:09;17.50;99.90
9177;DHT22;4623;54.310;10.112;2022-10-22T15:41:36;17.40;99.90
9177;DHT22;4623;54.310;10.112;2022-10-22T15:44:03;17.40;99.90
9177;DHT22;4623;54.310;10.112;2022-10-22T15:46:30;17.30;99.90
9177;DHT22;4623;54.310;10.112;2022-10-22T15:48:57;17.30;99.90
9177;DHT22;4623;54.310;10.112;2022-10-22T15:51:23;17.30;99.90
9177;DHT22;4623;54.310;10.112;2022-10-22T15:53:53;17.30;99.90
9177;DHT22;4623;54.310;10.112;2022-10-22T15:56:20;17.30;99.90
9177;DHT22;4623;54.310;10.112;2022-10-22T15:58:46;17.20;99.90
9177;DHT22;4623;54.310;10.112;2022-10-22T16:01:13;17.20;99.90
9177;DHT22;4623;54.310;10.112;2022-10-22T16:03:40;17.20;99.90
9177;DHT22;4623;54.310;10.112;2022-10-22T16:06:07;17.20;99.90
9177;DHT22;4623;54.310;10.112;2022-10-22T16:08:33;17.20;99.90
9177;DHT22;4623;54.310;10.112;2022-10-22T16:10:59;17.20;99.90
9177;DHT22;4623;54.310;10.112;2022-10-22T16:13:25;17.20;99.90
9177;DHT22;4623;54.310;10.112;2022-10-22T16:15:52;17.20;99.90
9177;DHT22;4623;54.310;10.112;2022-10-22T16:18:19;17.20;99.90
9177;DHT22;4623;54.310;10.112;2022-10-22T16:20:46;17.20;99.90
9177;DHT22;4623;54.310;10.112;2022-10-22T16:23:12;17.20;99.90
9177;DHT22;4623;54.310;10.112;2022-10-22T16:25:42;17.20;99.90
9177;DHT22;4623;54.310;10.112;2022-10-22T16:28:09;17.20;99.90
9177;DHT22;4623;54.310;10.112;2022-10-22T16:30:36;17.20;99.90
9177;DHT22;4623;54.310;10.112;2022-10-22T16:33:04;17.20;99.90
9177;DHT22;4623;54.310;10.112;2022-10-22T16:35:30;17.20;99.90
9177;DHT22;4623;54.310;10.112;2022-10-22T16:37:56;17.20;99.90
9177;DHT22;4623;54.310;10.112;2022-10-22T16:40:22;17.20;99.90
9177;DHT22;4623;54.310;10.112;2022-10-22T16:42:48;17.20;99.90
9177;DHT22;4623;54.310;10.112;2022-10-22T16:45:14;17.20;99.90
9177;DHT22;4623;54.310;10.112;2022-10-22T16:47:40;17.20;99.90
9177;DHT22;4623;54.310;10.112;2022-10-22T16:50:08;17.20;99.90
9177;DHT22;4623;54.310;10.112;2022-10-22T16:52:33;17.20;99.90
9177;DHT22;4623;54.310;10.112;2022-10-22T16:54:59;17.20;99.90
9177;DHT22;4623;54.310;10.112;2022-10-22T16:57:26;17.10;99.90
9177;DHT22;4623;54.310;10.112;2022-10-22T16:59:51;16.90;99.90
9177;DHT22;4623;54.310;10.112;2022-10-22T17:02:17;16.80;99.90
9177;DHT22;4623;54.310;10.112;2022-10-22T17:04:43;16.80;99.90
9177;DHT22;4623;54.310;10.112;2022-10-22T17:07:08;16.70;99.90
9177;DHT22;4623;54.310;10.112;2022-10-22T17:09:34;16.70;99.90
9177;DHT22;4623;54.310;10.112;2022-10-22T17:11:59;16.70;99.90
9177;DHT22;4623;54.310;10.112;2022-10-22T17:14:25;16.70;99.90
9177;DHT22;4623;54.310;10.112;2022-10-22T17:16:51;16.60;99.90
9177;DHT22;4623;54.310;10.112;2022-10-22T17:19:19;16.60;99.90
9177;DHT22;4623;54.310;10.112;2022-10-22T17:21:46;16.60;99.90
9177;DHT22;4623;54.310;10.112;2022-10-22T17:24:14;16.60;99.90
9177;DHT22;4623;54.310;10.112;2022-10-22T17:26:40;16.60;99.90
9177;DHT22;4623;54.310;10.112;2022-10-22T17:29:06;16.60;99.90
9177;DHT22;4623;54.310;10.112;2022-10-22T17:31:33;16.50;99.90
9177;DHT22;4623;54.310;10.112;2022-10-22T17:34:07;16.50;99.90
9177;DHT22;4623;54.310;10.112;2022-10-22T17:36:35;16.50;99.90
9177;DHT22;4623;54.310;10.112;2022-10-22T17:39:04;16.50;99.90
9177;DHT22;4623;54.310;10.112;2022-10-22T17:41:32;16.60;99.90
9177;DHT22;4623;54.310;10.112;2022-10-22T17:43:58;16.60;99.90
9177;DHT22;4623;54.310;10.112;2022-10-22T17:46:27;16.70;99.90
9177;DHT22;4623;54.310;10.112;2022-10-22T17:48:57;16.60;99.90
9177;DHT22;4623;54.310;10.112;2022-10-22T17:51:25;16.60;99.90
9177;DHT22;4623;54.310;10.112;2022-10-22T17:53:51;16.60;99.90
9177;DHT22;4623;54.310;10.112;2022-10-22T17:56:22;16.60;99.90